Aliartos, Greece

4:10 PM EEST on July 26, 2014 (GMT +0300)
Agios Dimitrios Viotias (ITHESSAL36) Elev 325 ft | 38.45 °N, 23.00 °E | Change Station

Current weather conditions updated 2 minutes ago

Scattered Clouds
Scattered Clouds
91.1 °F
Feels Like 92 °F
N
7.0
Wind Variable Wind from NNE
Gusts 10.0 mph

Tomorrow is forecast to be Warmer than today.

Today
High -- | Low -- °F
--% Chance of Precip.
Yesterday
High -- | Low -- °F
Precip. -- in
6:24 AM 8:43 PM
Waning Crescent, 0% visible
Pressure 29.83 in
Visibility 6.2 miles
Clouds Scattered Clouds 2500 ft
Heat Index 92 °F
Dew Point 63 °F
Humidity 40%
Rainfall 0.00 in
Snow Depth Not available.
UV 7 out of 12
Pollen Not available.
Air Quality Not available.
Flu Activity Not available.
METAR LGEL 261250Z 01009KT 9999 SCT025 34/14 Q1010 NOSIG

More Conditions Fewer Conditions

Pressure 29.83 in
Visibility 6.2 miles
Clouds Scattered Clouds 2500 ft
Heat Index 92 °F
Dew Point 63 °F
Humidity 40%
Rainfall 0.00 in
Snow Depth Not available.
UV 7 out of 12
Pollen Not available.
Air Quality Not available.
Flu Activity Not available.
METAR LGEL 261250Z 01009KT 9999 SCT025 34/14 Q1010 NOSIG

More Conditions Fewer Conditions

10-Day Weather Forecast

Almanac

Astronomy

Jul. 26, 2014 Rise Set
Actual Time 6:24 AM EEST 8:43 PM EEST
Civil Twilight 5:54 AM EEST 9:13 PM EEST
Nautical Twilight 5:17 AM EEST 9:50 PM EEST
Astronomical Twilight 4:36 AM EEST 10:30 PM EEST
Moon 5:59 AM EEST 8:07 PM EEST
Length of Visible Light 15h 18m
Length of Day
14h 18m
Tomorrow will be 1m 41s shorter.
Waning Crescent, 0% of the Moon is Illuminated
Today
Waning Crescent
Jul 26
New
Aug 3
First Quarter
Aug 10
Full
Aug 17
Last Quarter

Yesterday's Extremes

Country Highs Country Lows

Community

WunderPhotos

Upload Photos

1,737,565 photos uploaded!

Nearby

Snow Depth

Not available.

Earthquake Activity

City Distance Mag. Time & Date
No recent earthquake activity has been reported nearby.
Minimum magnitude displayed is 2.5.

Coastal Water Temperatures

Place Temperature
No Stations Reporting

Nearby Weather Stations

Station Location Temp. Heat Index Dew Point Humidity Wind Precip. Elev Updated Type
Agios Dimitrios Viotias, Agios Dimitrios Viotias 91.1 °F 92 °F 63 °F 40% NNE  at  7.0 mph 0.00 in / hr 325 ft 4:07 PM EEST Normal
Alepochori 90.9 °F 95 °F 68 °F 48% West  at  9.8 mph 0.00 in / hr 932 ft 4:09 PM EEST Rapid Fire

Show More Stations Show Fewer Stations